Time;durP1;ratioP1;P1;durP2;ratioP2;P2;SDS_P1;SDS_P2;PMS_P1;PMS_P2;Temp;Humidity;BMP_temperature;BMP_pressure;BME280_temperature;BME280_humidity;BME280_pressure;Samples;Min_cycle;Max_cycle;Signal;HPM_P1;HPM_P2
2024/03/23 00:02:48;;;;;;;20.08;9.68;;;;;;;9.58;65.42;99581.22;10404866;28;20140;-60
2024/03/23 00:07:50;;;;;;;13.77;8.50;;;;;;;9.59;65.49;99575.66;10401471;28;20044;-60
2024/03/23 00:12:50;;;;;;;13.82;8.57;;;;;;;9.57;65.29;99568.84;10401916;28;20049;-60
2024/03/23 00:17:51;;;;;;;16.80;7.90;;;;;;;9.43;65.60;99560.63;10401268;28;20049;-61
2024/03/23 00:22:51;;;;;;;16.40;7.80;;;;;;;9.42;65.55;99553.63;10405300;28;20136;-61
2024/03/23 00:27:52;;;;;;;14.68;7.28;;;;;;;9.23;65.87;99538.94;10417649;28;20129;-60
2024/03/23 00:32:52;;;;;;;15.15;8.45;;;;;;;9.23;65.58;99541.63;10416940;28;20132;-60
2024/03/23 00:37:52;;;;;;;15.38;7.57;;;;;;;9.13;66.00;99525.81;10402775;28;20087;-60
2024/03/23 00:42:53;;;;;;;15.23;7.65;;;;;;;9.16;65.95;99521.09;10424191;28;20095;-61
2024/03/23 00:47:53;;;;;;;17.35;9.15;;;;;;;9.15;66.26;99514.91;10420128;28;20072;-60
2024/03/23 00:52:54;;;;;;;14.90;8.48;;;;;;;9.42;65.92;99499.13;10425689;28;20795;-59
2024/03/23 00:57:54;;;;;;;11.15;7.88;;;;;;;9.62;65.66;99473.34;10418430;28;20410;-60
2024/03/23 01:02:55;;;;;;;16.05;7.63;;;;;;;9.71;65.55;99474.84;10420581;28;20123;-60
2024/03/23 01:07:55;;;;;;;15.85;7.43;;;;;;;9.85;65.41;99461.56;10415710;28;20056;-60
2024/03/23 01:12:56;;;;;;;13.60;7.25;;;;;;;9.91;65.20;99442.00;10418855;28;20044;-60
2024/03/23 01:17:56;;;;;;;15.35;7.85;;;;;;;9.86;65.53;99441.78;10414660;28;20099;-60
2024/03/23 01:22:57;;;;;;;23.60;9.25;;;;;;;9.72;65.93;99435.47;10421634;28;20061;-59
2024/03/23 01:27:57;;;;;;;15.50;8.05;;;;;;;9.90;65.64;99424.25;10416170;28;20033;-59
2024/03/23 01:32:58;;;;;;;12.77;7.35;;;;;;;10.00;65.77;99423.91;10413810;28;20060;-59
2024/03/23 01:37:58;;;;;;;14.93;7.88;;;;;;;9.96;65.83;99395.78;10419338;28;20106;-58
2024/03/23 01:43:04;;;;;;;15.95;7.85;;;;;;;10.00;66.02;99395.19;10416936;28;20387;-58
2024/03/23 01:48:05;;;;;;;16.85;7.85;;;;;;;10.05;65.69;99379.34;10426232;28;20042;-58
2024/03/23 01:53:06;;;;;;;17.02;8.00;;;;;;;10.00;65.46;99370.22;10418441;28;20435;-58
2024/03/23 01:58:07;;;;;;;12.20;8.15;;;;;;;9.76;66.17;99368.81;10411601;28;20099;-58
2024/03/23 02:03:27;;;;;;;14.27;7.80;;;;;;;9.82;65.99;99359.97;10420755;28;20072;-58
2024/03/23 02:08:28;;;;;;;12.38;7.32;;;;;;;9.67;66.55;99355.50;10414126;28;20049;-58
2024/03/23 02:13:29;;;;;;;14.25;7.60;;;;;;;9.72;66.42;99357.63;10409160;28;20094;-58
2024/03/23 02:18:29;;;;;;;18.65;8.70;;;;;;;9.86;66.25;99355.88;10423854;28;20049;-58
2024/03/23 02:23:30;;;;;;;14.93;8.18;;;;;;;9.98;66.03;99335.50;10426233;28;20562;-59
2024/03/23 02:28:31;;;;;;;13.65;7.57;;;;;;;9.99;65.89;99323.75;10420984;28;20114;-58
2024/03/23 02:33:32;;;;;;;18.15;8.82;;;;;;;9.85;66.43;99319.31;10421836;28;20046;-58
2024/03/23 02:38:33;;;;;;;15.25;8.93;;;;;;;9.92;66.32;99321.00;10434804;28;20056;-58
2024/03/23 02:43:33;;;;;;;23.10;10.23;;;;;;;9.96;66.40;99310.72;10426184;28;20480;-58
2024/03/23 02:48:34;;;;;;;21.20;10.43;;;;;;;9.98;66.49;99305.97;10425089;28;20045;-57
2024/03/23 02:53:34;;;;;;;20.15;10.63;;;;;;;10.06;66.33;99288.88;10423569;28;20050;-57
2024/03/23 02:58:35;;;;;;;22.80;10.50;;;;;;;10.17;66.12;99282.94;10421688;28;20120;-57
2024/03/23 03:03:35;;;;;;;24.60;9.82;;;;;;;10.33;66.03;99287.19;10416903;28;20041;-57
2024/03/23 03:08:36;;;;;;;25.23;11.82;;;;;;;10.45;65.86;99276.69;10424842;28;20037;-58
2024/03/23 03:13:36;;;;;;;19.70;9.57;;;;;;;10.53;65.94;99273.81;10403420;28;20052;-57
2024/03/23 03:18:37;;;;;;;16.83;8.77;;;;;;;10.62;65.61;99255.63;10423349;28;20037;-57
2024/03/23 03:23:38;;;;;;;20.00;9.40;;;;;;;10.70;65.71;99260.81;10419201;28;20707;-58
2024/03/23 03:28:39;;;;;;;17.60;8.63;;;;;;;10.67;65.55;99269.28;10417752;28;20145;-58
2024/03/23 03:33:39;;;;;;;16.33;8.38;;;;;;;10.68;66.05;99247.59;10412868;28;20381;-57
2024/03/23 03:38:39;;;;;;;19.77;9.48;;;;;;;10.69;65.74;99241.19;10417080;28;20064;-58
2024/03/23 03:43:40;;;;;;;16.85;9.02;;;;;;;10.70;65.81;99215.97;10416727;28;20056;-57
2024/03/23 03:48:40;;;;;;;21.48;10.45;;;;;;;10.71;65.77;99214.09;10419164;28;20056;-58
2024/03/23 03:53:41;;;;;;;21.60;10.45;;;;;;;10.68;66.15;99211.81;10423984;28;20509;-58
2024/03/23 03:58:42;;;;;;;21.63;10.82;;;;;;;10.64;66.17;99232.91;10422517;28;20091;-60
2024/03/23 04:03:43;;;;;;;26.10;11.75;;;;;;;10.66;66.34;99246.13;10415481;28;20048;-60
2024/03/23 04:08:44;;;;;;;25.92;11.85;;;;;;;10.69;66.49;99264.53;10421714;28;20038;-61
2024/03/23 04:13:44;;;;;;;25.90;11.70;;;;;;;10.48;67.52;99281.63;10419124;28;20068;-61
2024/03/23 04:18:47;;;;;;;22.33;9.52;;;;;;;10.45;68.01;99299.00;10419047;28;20095;-60
2024/03/23 04:23:48;;;;;;;12.43;4.93;;;;;;;10.38;69.10;99290.06;10428001;28;20063;-59
2024/03/23 04:28:48;;;;;;;4.53;1.83;;;;;;;9.63;72.11;99314.00;10432215;28;20041;-59
2024/03/23 04:33:48;;;;;;;3.38;1.10;;;;;;;9.27;72.98;99311.47;10416059;28;20093;-60
2024/03/23 04:38:50;;;;;;;1.30;0.50;;;;;;;8.97;73.51;99303.56;10412992;28;20053;-61
2024/03/23 04:43:50;;;;;;;0.85;0.45;;;;;;;8.81;73.88;99304.66;10416260;28;20127;-61
2024/03/23 04:48:51;;;;;;;0.70;0.20;;;;;;;8.71;73.46;99288.06;10417472;28;20099;-60
2024/03/23 04:53:51;;;;;;;0.20;0.10;;;;;;;8.44;73.64;99290.44;10421218;28;20049;-60
2024/03/23 04:58:52;;;;;;;0.17;0.10;;;;;;;8.37;73.13;99315.44;10417129;28;20045;-60
2024/03/23 05:03:52;;;;;;;0.30;0.20;;;;;;;8.29;73.03;99319.88;10417404;28;20278;-60
2024/03/23 05:08:53;;;;;;;0.32;0.10;;;;;;;8.11;73.00;99338.16;10419884;28;20503;-62
2024/03/23 05:13:53;;;;;;;0.55;0.10;;;;;;;8.17;72.75;99344.63;10413981;28;20403;-60
2024/03/23 05:18:54;;;;;;;0.63;0.20;;;;;;;8.26;72.23;99355.06;10415601;28;20045;-64
2024/03/23 05:23:55;;;;;;;0.20;0.13;;;;;;;8.40;71.65;99355.22;10420691;28;20091;-64
2024/03/23 05:28:55;;;;;;;0.20;0.10;;;;;;;8.46;71.57;99374.09;10414812;28;20592;-65
2024/03/23 05:33:56;;;;;;;0.68;0.20;;;;;;;8.56;70.38;99381.00;10416473;28;20033;-64
2024/03/23 05:38:56;;;;;;;0.30;0.20;;;;;;;8.54;69.91;99407.97;10422057;28;20048;-65
2024/03/23 05:43:57;;;;;;;0.95;0.30;;;;;;;8.69;69.48;99402.63;10417534;28;20048;-64
2024/03/23 05:49:01;;;;;;;4.03;0.25;;;;;;;8.71;69.39;99414.78;10414597;28;20040;-65
2024/03/23 05:54:02;;;;;;;0.73;0.20;;;;;;;8.77;68.88;99402.50;10423111;28;20403;-65
2024/03/23 05:59:03;;;;;;;0.20;0.20;;;;;;;8.76;68.88;99421.44;10423326;28;20046;-65
2024/03/23 06:04:04;;;;;;;0.15;0.10;;;;;;;8.87;68.49;99443.22;10426594;28;20460;-64
2024/03/23 06:09:04;;;;;;;0.35;0.00;;;;;;;8.80;68.38;99471.78;10437259;28;20080;-63
2024/03/23 06:14:05;;;;;;;0.32;0.13;;;;;;;8.72;67.94;99479.94;10421205;28;20038;-64
2024/03/23 06:19:06;;;;;;;0.10;0.10;;;;;;;8.59;67.39;99477.91;10423407;28;20484;-64
2024/03/23 06:24:07;;;;;;;0.15;0.03;;;;;;;8.61;66.88;99478.56;10421528;28;20140;-63
2024/03/23 06:29:08;;;;;;;0.03;0.00;;;;;;;8.73;66.84;99500.34;10418673;28;20045;-63
2024/03/23 06:34:08;;;;;;;0.47;0.10;;;;;;;8.73;66.63;99533.34;10429852;28;20052;-64
2024/03/23 06:39:12;;;;;;;0.10;0.00;;;;;;;8.70;66.40;99555.13;10434394;28;20048;-64
2024/03/23 06:44:12;;;;;;;0.13;0.00;;;;;;;8.73;66.45;99567.34;10426298;28;20064;-65
2024/03/23 06:49:13;;;;;;;0.15;0.10;;;;;;;8.74;66.62;99601.97;10420273;28;20063;-64
2024/03/23 06:54:14;;;;;;;0.10;0.00;;;;;;;8.73;66.13;99607.53;10432251;28;20046;-64
2024/03/23 06:59:15;;;;;;;0.05;0.03;;;;;;;8.69;66.04;99625.00;10457733;28;20048;-64
2024/03/23 07:04:15;;;;;;;0.52;0.00;;;;;;;8.73;65.27;99632.47;10418980;28;20177;-64
2024/03/23 07:09:16;;;;;;;1.77;0.10;;;;;;;8.74;64.87;99628.75;10435998;28;20037;-64
2024/03/23 07:14:16;;;;;;;2.40;0.38;;;;;;;8.82;64.38;99651.16;10432781;28;20121;-65
2024/03/23 07:19:17;;;;;;;2.75;0.10;;;;;;;8.72;63.55;99662.94;10426664;28;20041;-65
2024/03/23 07:24:18;;;;;;;0.30;0.20;;;;;;;8.72;63.30;99672.84;10423501;28;20116;-65
2024/03/23 07:29:18;;;;;;;2.35;0.28;;;;;;;8.80;62.72;99672.75;10416881;28;20057;-64
2024/03/23 07:34:19;;;;;;;2.92;0.50;;;;;;;8.89;62.30;99685.09;10420489;28;20057;-65
2024/03/23 07:39:20;;;;;;;3.65;0.50;;;;;;;8.75;62.21;99710.00;10422679;28;20056;-64
2024/03/23 07:44:20;;;;;;;4.00;0.30;;;;;;;8.87;61.63;99707.72;10425271;28;20057;-66
2024/03/23 07:49:21;;;;;;;3.45;0.82;;;;;;;8.87;61.30;99723.81;10421709;28;20056;-65
2024/03/23 07:54:21;;;;;;;4.80;1.23;;;;;;;9.05;61.17;99734.22;10417663;28;20187;-64
2024/03/23 07:59:22;;;;;;;4.20;0.80;;;;;;;9.23;60.60;99747.28;10417432;28;20175;-64
2024/03/23 08:04:22;;;;;;;2.42;0.50;;;;;;;9.26;60.47;99761.16;10413001;28;20494;-65
2024/03/23 08:09:23;;;;;;;6.97;2.13;;;;;;;9.19;60.49;99762.88;10421629;28;20052;-65
2024/03/23 08:14:23;;;;;;;4.97;1.50;;;;;;;9.19;59.97;99767.44;10415651;28;20044;-65
2024/03/23 08:19:24;;;;;;;5.75;1.42;;;;;;;9.36;59.92;99771.63;10403414;28;20049;-65
2024/03/23 08:24:25;;;;;;;6.32;2.28;;;;;;;9.58;59.41;99775.25;10417666;28;20037;-64
2024/03/23 08:29:26;;;;;;;7.07;2.65;;;;;;;9.71;59.25;99775.44;10414612;28;20068;-64
2024/03/23 08:34:26;;;;;;;4.68;1.42;;;;;;;10.00;58.59;99784.50;10417735;28;20053;-64
2024/03/23 08:39:26;;;;;;;4.63;1.83;;;;;;;10.29;58.06;99780.13;10421668;28;20455;-64
2024/03/23 08:44:27;;;;;;;5.28;2.55;;;;;;;10.25;57.24;99786.91;10414339;28;20037;-64
2024/03/23 08:49:27;;;;;;;6.43;2.15;;;;;;;10.32;57.57;99785.97;10412187;28;20052;-64
2024/03/23 08:54:29;;;;;;;8.13;2.60;;;;;;;10.39;57.04;99799.50;10421092;28;20044;-62
2024/03/23 08:59:29;;;;;;;4.30;1.70;;;;;;;10.59;56.47;99783.59;10416337;28;20049;-63
2024/03/23 09:04:30;;;;;;;5.35;1.90;;;;;;;10.93;55.85;99792.00;10416184;28;20046;-62
2024/03/23 09:09:30;;;;;;;7.47;1.15;;;;;;;11.17;55.57;99796.16;10421600;28;20033;-62
2024/03/23 09:14:32;;;;;;;5.30;1.13;;;;;;;11.05;55.74;99795.84;10415839;28;20037;-62
2024/03/23 09:19:33;;;;;;;6.32;1.67;;;;;;;11.00;55.67;99809.88;10419777;28;20041;-62
2024/03/23 09:24:33;;;;;;;6.78;1.65;;;;;;;10.99;55.13;99797.44;10423973;28;20036;-60
2024/03/23 09:29:34;;;;;;;4.65;1.15;;;;;;;11.07;55.27;99809.94;10414664;28;20045;-60
2024/03/23 09:34:34;;;;;;;10.25;2.17;;;;;;;11.20;55.02;99788.53;10426692;28;20435;-60
2024/03/23 09:39:35;;;;;;;6.28;1.33;;;;;;;11.25;54.85;99796.03;10428001;28;20041;-60
2024/03/23 09:44:35;;;;;;;6.50;1.55;;;;;;;11.17;53.76;99807.75;10433013;28;20050;-60
2024/03/23 09:49:38;;;;;;;4.28;1.23;;;;;;;11.28;50.45;99803.72;10426080;28;20094;-59
2024/03/23 09:54:39;;;;;;;5.70;0.80;;;;;;;11.29;49.90;99808.06;10422374;28;20041;-59
2024/03/23 09:59:39;;;;;;;6.53;0.77;;;;;;;11.59;48.51;99803.34;10424196;28;20123;-59
2024/03/23 10:04:41;;;;;;;6.93;0.90;;;;;;;11.68;48.22;99812.91;10423500;28;20053;-59
2024/03/23 10:09:42;;;;;;;7.88;0.73;;;;;;;11.83;47.98;99796.66;10434060;28;20042;-60
2024/03/23 10:14:43;;;;;;;2.60;0.80;;;;;;;12.12;47.66;99783.97;10422315;28;20041;-59
2024/03/23 10:19:49;;;;;;;6.15;0.80;;;;;;;12.22;47.53;99779.09;10422524;28;20053;-59
2024/03/23 10:24:50;;;;;;;5.90;1.15;;;;;;;13.26;45.78;99764.31;10425319;28;20450;-59
2024/03/23 10:29:50;;;;;;;6.30;0.55;;;;;;;13.69;45.26;99766.59;10422327;28;20059;-59
2024/03/23 10:34:51;;;;;;;7.38;0.55;;;;;;;13.15;45.10;99758.72;10419224;28;20046;-59
2024/03/23 10:39:51;;;;;;;5.80;1.33;;;;;;;12.64;45.85;99754.75;10422931;28;20121;-57
2024/03/23 10:44:53;;;;;;;2.30;0.60;;;;;;;12.47;46.58;99778.53;10421573;28;20095;-57
2024/03/23 10:49:54;;;;;;;2.60;0.40;;;;;;;11.79;48.47;99794.53;10420610;28;20042;-58
2024/03/23 10:54:56;;;;;;;1.95;0.50;;;;;;;11.21;50.04;99810.88;10426152;28;20045;-59
2024/03/23 10:59:57;;;;;;;10.40;0.60;;;;;;;10.77;51.34;99793.09;10426419;28;20057;-59
2024/03/23 11:04:58;;;;;;;2.90;0.70;;;;;;;10.25;52.31;99846.84;10416824;28;20443;-57
2024/03/23 11:09:59;;;;;;;3.83;0.55;;;;;;;10.09;53.02;99820.16;10419897;28;20041;-58
2024/03/23 11:15:12;;;;;;;8.15;1.33;;;;;;;10.34;53.69;99807.28;10425151;28;20115;-57
2024/03/23 11:20:12;;;;;;;2.72;0.38;;;;;;;10.77;52.91;99806.53;10419885;28;20057;-57
2024/03/23 11:25:26;;;;;;;3.00;0.30;;;;;;;11.05;52.64;99793.16;10404902;28;20060;-56
2024/03/23 11:30:28;;;;;;;2.03;0.30;;;;;;;11.54;51.46;99778.03;10406911;28;20054;-56
2024/03/23 11:35:32;;;;;;;0.82;0.20;;;;;;;11.43;51.42;99777.56;10407177;28;20518;-57
2024/03/23 11:40:34;;;;;;;5.07;0.82;;;;;;;11.42;51.01;99772.38;10408212;28;20122;-56
2024/03/23 11:45:40;;;;;;;4.18;0.40;;;;;;;11.73;50.15;99771.09;10407016;28;20068;-57
2024/03/23 11:50:43;;;;;;;4.55;0.50;;;;;;;13.47;46.14;99757.09;10403967;28;20406;-60
2024/03/23 11:55:55;;;;;;;5.20;1.05;;;;;;;13.82;45.92;99752.25;10413950;28;20038;-56
2024/03/23 12:00:57;;;;;;;3.17;0.50;;;;;;;18.82;37.56;99705.09;10408749;28;20042;-59
2024/03/23 12:06:00;;;;;;;3.65;0.75;;;;;;;20.89;33.60;99684.81;10392052;28;20480;-59
2024/03/23 12:11:09;;;;;;;4.13;0.90;;;;;;;18.06;38.89;99695.47;10421258;28;20048;-58
2024/03/23 12:16:12;;;;;;;4.22;0.70;;;;;;;16.80;41.54;99702.91;10409099;28;20056;-57
2024/03/23 12:21:12;;;;;;;3.70;0.70;;;;;;;21.95;33.26;99663.88;10402905;28;20061;-57
2024/03/23 12:26:13;;;;;;;2.90;1.33;;;;;;;25.26;28.47;99658.84;10401962;28;20383;-58
2024/03/23 12:31:14;;;;;;;3.30;1.33;;;;;;;27.55;25.83;99658.56;10404481;28;20053;-57
2024/03/23 12:36:14;;;;;;;1.58;0.50;;;;;;;28.49;24.91;99659.03;10399636;28;20090;-59
2024/03/23 12:41:15;;;;;;;4.35;0.70;;;;;;;28.20;24.57;99653.91;10402219;28;20562;-58
2024/03/23 12:46:15;;;;;;;7.30;0.60;;;;;;;27.19;25.18;99661.13;10408374;28;20107;-59
2024/03/23 12:51:16;;;;;;;2.65;0.50;;;;;;;22.38;30.27;99672.78;10411518;28;20059;-59
2024/03/23 12:56:17;;;;;;;2.28;0.70;;;;;;;21.27;31.40;99685.66;10402634;28;20523;-58
2024/03/23 13:01:17;;;;;;;4.10;1.70;;;;;;;20.37;31.25;99684.31;10397348;28;20065;-59
2024/03/23 13:06:19;;;;;;;2.65;0.60;;;;;;;17.57;33.74;99723.75;10410121;28;20064;-59
2024/03/23 13:11:19;;;;;;;3.42;0.30;;;;;;;15.49;37.04;99770.22;10404434;28;20053;-59
2024/03/23 13:16:20;;;;;;;2.30;0.30;;;;;;;13.66;40.86;99798.59;10403390;28;20049;-67
2024/03/23 13:21:20;;;;;;;0.98;0.30;;;;;;;9.52;54.63;99877.97;10404296;28;20560;-66
2024/03/23 13:26:21;;;;;;;1.40;0.30;;;;;;;8.22;60.82;99886.53;10400430;28;20065;-65
2024/03/23 13:31:21;;;;;;;1.70;0.30;;;;;;;7.37;64.53;99895.03;10407309;28;20045;-65
2024/03/23 13:36:22;;;;;;;0.17;0.10;;;;;;;6.95;65.15;99894.13;10398352;28;20504;-65
2024/03/23 13:41:22;;;;;;;0.63;0.13;;;;;;;8.01;65.48;99852.28;10401299;28;20052;-66
2024/03/23 13:46:23;;;;;;;0.73;0.13;;;;;;;8.79;64.12;99828.38;10419447;28;20068;-65
2024/03/23 13:51:27;;;;;;;0.52;0.15;;;;;;;8.92;64.27;99820.56;10399734;28;20033;-64
2024/03/23 13:56:30;;;;;;;0.13;0.05;;;;;;;8.72;64.92;99813.00;10377896;28;20049;-66
2024/03/23 14:01:31;;;;;;;1.00;0.20;;;;;;;9.66;64.16;99793.97;10403312;28;20060;-62
2024/03/23 14:06:32;;;;;;;2.10;0.30;;;;;;;13.86;57.32;99768.84;10398715;28;20617;-65
2024/03/23 14:11:32;;;;;;;1.10;0.10;;;;;;;16.40;54.08;99748.78;10401812;28;20481;-62
2024/03/23 14:16:33;;;;;;;0.65;0.10;;;;;;;17.78;52.44;99752.25;10406920;28;20047;-64
2024/03/23 14:21:37;;;;;;;0.88;0.10;;;;;;;17.74;52.43;99761.94;10406102;28;20049;-65
2024/03/23 14:26:38;;;;;;;0.28;0.20;;;;;;;18.72;50.17;99756.63;10404658;28;20037;-58
2024/03/23 14:31:39;;;;;;;0.30;0.00;;;;;;;16.75;50.56;99765.22;10403355;28;20222;-62
2024/03/23 14:36:39;;;;;;;1.33;0.13;;;;;;;16.79;49.70;99741.97;10411380;28;20052;-59
2024/03/23 14:41:40;;;;;;;1.10;0.30;;;;;;;15.05;50.96;99755.81;10408435;28;20037;-57
2024/03/23 14:46:40;;;;;;;0.25;0.00;;;;;;;14.05;52.58;99748.22;10403672;28;20046;-58
2024/03/23 14:51:41;;;;;;;2.33;0.10;;;;;;;13.50;53.29;99743.16;10405847;28;20634;-57
2024/03/23 14:56:41;;;;;;;0.40;0.35;;;;;;;13.10;53.76;99745.88;10402239;28;20052;-56
2024/03/23 15:01:42;;;;;;;0.90;0.10;;;;;;;12.86;53.75;99737.34;10407545;28;20053;-57
2024/03/23 15:06:42;;;;;;;1.17;0.17;;;;;;;12.50;54.51;99735.84;10407139;28;20076;-60
2024/03/23 15:11:43;;;;;;;0.40;0.10;;;;;;;12.23;54.80;99736.78;10406868;28;20092;-57
2024/03/23 15:16:43;;;;;;;0.10;0.10;;;;;;;12.05;54.73;99727.41;10406564;28;20087;-57
2024/03/23 15:21:44;;;;;;;1.50;0.10;;;;;;;11.97;54.15;99721.38;10402765;28;20052;-58
2024/03/23 15:26:44;;;;;;;0.40;0.10;;;;;;;11.74;53.73;99725.13;10400354;28;20045;-57
2024/03/23 15:31:46;;;;;;;0.30;0.20;;;;;;;11.45;53.50;99712.75;10387774;28;20446;-58
2024/03/23 15:36:46;;;;;;;0.75;0.10;;;;;;;11.41;52.87;99716.88;10401652;28;20064;-68
2024/03/23 15:41:47;;;;;;;3.42;0.10;;;;;;;11.10;52.64;99705.47;10379618;28;20080;-65
2024/03/23 15:46:48;;;;;;;1.02;0.20;;;;;;;10.67;52.95;99758.47;10386962;28;20319;-65
2024/03/23 15:51:48;;;;;;;2.83;0.10;;;;;;;8.91;57.36;99768.81;10390728;28;20057;-62
2024/03/23 15:56:49;;;;;;;1.77;0.40;;;;;;;8.19;59.26;99725.41;10388179;28;20076;-64
2024/03/23 16:01:49;;;;;;;0.30;0.10;;;;;;;8.00;58.92;99714.16;10402795;28;20052;-65
2024/03/23 16:06:50;;;;;;;2.85;0.70;;;;;;;8.31;59.18;99711.47;10405155;28;20048;-63
2024/03/23 16:11:50;;;;;;;3.83;0.20;;;;;;;8.72;58.84;99697.78;10413019;28;20491;-65
2024/03/23 16:16:51;;;;;;;0.10;0.10;;;;;;;8.74;58.11;99701.09;10402141;28;20045;-65
2024/03/23 16:21:51;;;;;;;1.83;0.05;;;;;;;9.26;57.14;99688.75;10400122;28;20049;-62
2024/03/23 16:26:52;;;;;;;1.50;0.20;;;;;;;9.48;57.11;99668.22;10402466;28;20466;-67
2024/03/23 16:31:52;;;;;;;2.83;0.40;;;;;;;9.74;56.23;99674.94;10401146;28;20090;-66
2024/03/23 16:36:53;;;;;;;1.10;0.20;;;;;;;9.65;56.56;99690.31;10404116;28;20037;-65
2024/03/23 16:41:53;;;;;;;2.35;0.30;;;;;;;9.59;56.98;99683.00;10387000;28;20045;-65
2024/03/23 16:46:54;;;;;;;1.58;0.20;;;;;;;10.08;56.73;99685.06;10402002;28;20045;-58
2024/03/23 16:51:54;;;;;;;2.97;0.20;;;;;;;10.39;56.02;99688.53;10401951;28;20041;-58
2024/03/23 16:56:55;;;;;;;1.48;0.20;;;;;;;10.23;56.45;99687.72;10403101;28;20041;-58
2024/03/23 17:01:55;;;;;;;1.20;0.10;;;;;;;10.12;56.83;99694.38;10398613;28;20432;-58
2024/03/23 17:06:56;;;;;;;1.45;0.30;;;;;;;9.95;57.23;99705.53;10397459;28;20395;-58
2024/03/23 17:11:56;;;;;;;1.13;0.30;;;;;;;9.86;57.35;99704.81;10398707;28;20087;-58
2024/03/23 17:16:56;;;;;;;1.55;0.20;;;;;;;9.76;57.32;99706.97;10385301;28;20499;-59
2024/03/23 17:21:57;;;;;;;1.50;0.40;;;;;;;9.54;57.72;99704.22;10402761;28;20045;-58
2024/03/23 17:26:57;;;;;;;0.77;0.20;;;;;;;9.45;57.96;99699.94;10402777;28;20037;-59
2024/03/23 17:31:58;;;;;;;2.90;0.98;;;;;;;9.37;58.03;99716.13;10397972;28;20051;-60
2024/03/23 17:36:58;;;;;;;3.45;0.40;;;;;;;9.42;57.92;99711.88;10384690;28;20037;-59
2024/03/23 17:41:59;;;;;;;1.60;0.30;;;;;;;9.15;58.68;99718.69;10403644;28;20044;-60
2024/03/23 17:46:59;;;;;;;1.33;0.10;;;;;;;7.64;62.58;99784.19;10404612;28;20052;-59
2024/03/23 17:52:07;;;;;;;0.10;0.00;;;;;;;6.69;65.53;99789.22;10407452;28;20451;-60
2024/03/23 17:57:08;;;;;;;0.20;0.08;;;;;;;6.43;65.43;99750.13;10415207;28;20432;-58
2024/03/23 18:02:08;;;;;;;0.20;0.00;;;;;;;6.48;66.02;99749.66;10403442;28;20083;-59
2024/03/23 18:07:09;;;;;;;0.57;0.38;;;;;;;6.40;65.41;99749.63;10407970;28;20132;-57
2024/03/23 18:12:10;;;;;;;1.42;0.10;;;;;;;6.34;65.33;99741.28;10404648;28;20107;-60
2024/03/23 18:17:11;;;;;;;2.70;0.20;;;;;;;6.40;65.74;99745.13;10408181;28;20298;-57
2024/03/23 18:22:11;;;;;;;11.48;2.42;;;;;;;6.36;65.49;99738.44;10407738;28;20048;-58
2024/03/23 18:27:13;;;;;;;3.50;1.27;;;;;;;6.30;65.34;99739.94;10410057;28;20412;-58
2024/03/23 18:32:14;;;;;;;5.50;1.40;;;;;;;6.34;65.22;99735.94;10406441;28;20041;-56
2024/03/23 18:37:14;;;;;;;5.32;1.00;;;;;;;6.31;65.43;99749.59;10390020;28;20050;-58
2024/03/23 18:42:15;;;;;;;2.30;0.73;;;;;;;6.28;65.42;99751.75;10414647;28;20096;-57
2024/03/23 18:47:15;;;;;;;1.45;0.30;;;;;;;6.12;65.62;99750.75;10405885;28;20041;-57
2024/03/23 18:52:16;;;;;;;3.80;0.32;;;;;;;6.00;66.32;99752.00;10404588;28;20095;-57
2024/03/23 18:57:16;;;;;;;0.43;0.30;;;;;;;5.97;66.44;99741.66;10402555;28;20042;-57
2024/03/23 19:02:17;;;;;;;1.30;0.40;;;;;;;6.01;67.22;99745.69;10402434;28;20045;-55
2024/03/23 19:07:17;;;;;;;3.60;0.30;;;;;;;6.05;67.26;99740.88;10405660;28;20049;-58
2024/03/23 19:12:18;;;;;;;1.48;0.30;;;;;;;6.05;66.55;99754.22;10403284;28;20403;-57
2024/03/23 19:17:18;;;;;;;0.65;0.20;;;;;;;6.06;66.96;99748.72;10406228;28;20033;-56
2024/03/23 19:22:19;;;;;;;0.70;0.10;;;;;;;6.14;66.11;99743.41;10405708;28;20049;-56
2024/03/23 19:27:20;;;;;;;1.48;0.20;;;;;;;6.28;66.01;99727.72;10384811;28;20044;-56
2024/03/23 19:32:20;;;;;;;8.07;1.98;;;;;;;6.33;66.57;99741.44;10403392;28;20102;-57
2024/03/23 19:37:21;;;;;;;1.35;0.22;;;;;;;6.28;66.72;99733.06;10400848;28;20523;-56
2024/03/23 19:42:22;;;;;;;1.38;0.40;;;;;;;6.25;66.34;99730.75;10402871;28;20132;-57
2024/03/23 19:47:23;;;;;;;2.50;0.50;;;;;;;6.23;66.92;99736.25;10400288;28;20040;-59
2024/03/23 19:52:23;;;;;;;1.88;0.15;;;;;;;6.17;67.03;99752.06;10405519;28;20052;-57
2024/03/23 19:57:23;;;;;;;4.40;0.75;;;;;;;6.10;67.60;99736.72;10405920;28;20413;-57
2024/03/23 20:02:24;;;;;;;1.25;0.30;;;;;;;6.06;67.33;99719.38;10387282;28;20111;-57
2024/03/23 20:07:25;;;;;;;1.80;0.30;;;;;;;6.04;67.19;99728.50;10398494;28;20041;-56
2024/03/23 20:12:25;;;;;;;0.47;0.30;;;;;;;5.99;67.56;99713.00;10393386;28;20042;-57
2024/03/23 20:17:26;;;;;;;0.40;0.30;;;;;;;5.99;66.91;99707.66;10401472;28;20419;-56
2024/03/23 20:22:27;;;;;;;2.10;0.20;;;;;;;5.94;67.64;99705.47;10417587;28;20041;-56
2024/03/23 20:27:28;;;;;;;2.90;0.60;;;;;;;5.86;67.91;99709.91;10396433;28;20049;-57
2024/03/23 20:32:28;;;;;;;3.13;0.50;;;;;;;5.80;67.66;99710.56;10387104;28;20045;-56
2024/03/23 20:37:29;;;;;;;2.78;0.35;;;;;;;5.75;68.43;99709.22;10401713;28;20156;-56
2024/03/23 20:42:30;;;;;;;2.08;0.50;;;;;;;5.74;68.08;99712.88;10401636;28;20479;-56
2024/03/23 20:47:31;;;;;;;1.90;0.30;;;;;;;5.73;68.28;99731.72;10406689;28;20045;-56
2024/03/23 20:52:34;;;;;;;0.70;0.30;;;;;;;5.74;68.23;99725.38;10405263;28;20504;-57
2024/03/23 20:57:35;;;;;;;4.38;0.60;;;;;;;5.69;69.05;99725.88;10386500;28;20514;-56
2024/03/23 21:02:35;;;;;;;1.75;0.50;;;;;;;5.72;68.72;99727.38;10401387;28;20110;-55
2024/03/23 21:07:36;;;;;;;2.45;0.70;;;;;;;5.82;68.45;99724.56;10398219;28;20053;-56
2024/03/23 21:12:36;;;;;;;1.52;0.40;;;;;;;5.88;68.42;99731.94;10397420;28;20045;-55
2024/03/23 21:17:38;;;;;;;1.85;1.17;;;;;;;5.92;68.63;99720.78;10399842;28;20041;-57
2024/03/23 21:22:38;;;;;;;0.77;0.38;;;;;;;5.97;68.61;99720.34;10405323;28;20041;-57
2024/03/23 21:27:39;;;;;;;1.92;0.43;;;;;;;6.01;68.91;99712.84;10397952;28;20033;-58
2024/03/23 21:32:40;;;;;;;1.20;0.40;;;;;;;6.07;69.28;99697.00;10402139;28;20049;-58
2024/03/23 21:37:40;;;;;;;1.83;0.50;;;;;;;6.09;69.27;99694.19;10398521;28;20067;-58
2024/03/23 21:42:42;;;;;;;1.73;0.45;;;;;;;6.08;68.96;99705.84;10403345;28;20135;-58
2024/03/23 21:47:43;;;;;;;2.63;0.25;;;;;;;6.01;69.47;99713.69;10398676;28;20523;-58
2024/03/23 21:52:44;;;;;;;4.70;1.05;;;;;;;6.00;68.68;99712.00;10400641;28;20052;-58
2024/03/23 21:57:48;;;;;;;1.95;0.45;;;;;;;6.01;68.65;99712.84;10381542;28;20045;-58
2024/03/23 22:02:49;;;;;;;1.77;0.55;;;;;;;6.01;68.59;99705.66;10403735;28;20122;-58
2024/03/23 22:07:49;;;;;;;1.83;0.70;;;;;;;5.93;69.08;99694.94;10395607;28;20053;-59
2024/03/23 22:12:50;;;;;;;2.08;0.50;;;;;;;5.91;69.53;99684.44;10397915;28;20049;-59
2024/03/23 22:17:50;;;;;;;1.17;0.40;;;;;;;5.91;69.05;99681.78;10401869;28;20723;-58
2024/03/23 22:22:51;;;;;;;0.82;0.60;;;;;;;5.84;69.58;99670.06;10399214;28;20051;-58
2024/03/23 22:27:51;;;;;;;1.38;0.65;;;;;;;5.77;70.21;99669.06;10411449;28;20060;-58
2024/03/23 22:32:54;;;;;;;5.40;0.80;;;;;;;5.74;70.16;99669.38;10422428;28;20128;-59
2024/03/23 22:37:55;;;;;;;4.78;1.00;;;;;;;5.73;70.09;99663.22;10424909;28;20045;-59
2024/03/23 22:42:55;;;;;;;5.97;0.85;;;;;;;5.70;69.71;99652.84;10418058;28;20048;-59
2024/03/23 22:47:56;;;;;;;3.80;0.80;;;;;;;5.69;69.53;99647.72;10418358;28;20071;-59
2024/03/23 22:52:56;;;;;;;1.48;0.70;;;;;;;5.62;70.22;99642.16;10419282;28;20096;-58
2024/03/23 22:57:57;;;;;;;1.73;0.60;;;;;;;5.61;69.58;99658.31;10422622;28;20041;-58
2024/03/23 23:02:58;;;;;;;2.25;0.60;;;;;;;5.75;69.37;99655.06;10422323;28;20048;-59
2024/03/23 23:07:58;;;;;;;2.25;0.60;;;;;;;5.86;69.12;99653.91;10425220;28;20352;-60
2024/03/23 23:12:59;;;;;;;5.45;0.80;;;;;;;5.93;69.65;99641.59;10422670;28;20435;-58
2024/03/23 23:17:59;;;;;;;3.38;1.00;;;;;;;6.01;69.62;99622.97;10417101;28;20048;-58
2024/03/23 23:23:00;;;;;;;3.85;0.88;;;;;;;6.11;69.82;99618.31;10419170;28;20126;-58
2024/03/23 23:28:00;;;;;;;2.00;1.10;;;;;;;6.11;69.66;99610.31;10420218;28;20558;-59